Time;durP1;ratioP1;P1;durP2;ratioP2;P2;SDS_P1;SDS_P2;PMS_P1;PMS_P2;Temp;Humidity;BMP_temperature;BMP_pressure;BME280_temperature;BME280_humidity;BME280_pressure;Samples;Min_cycle;Max_cycle;Signal;HPM_P1;HPM_P2
2023/02/03 00:01:17;;;;;;;20.20;3.83;;;9.20;99.90;;;;;;6338538;22;39411;-78
2023/02/03 00:03:43;;;;;;;30.67;3.87;;;9.20;99.90;;;;;;6338356;22;38201;-77
2023/02/03 00:06:10;;;;;;;24.50;4.27;;;9.20;99.90;;;;;;6338798;22;39292;-77
2023/02/03 00:08:37;;;;;;;21.23;3.13;;;9.20;99.90;;;;;;6312090;22;36173;-79
2023/02/03 00:11:04;;;;;;;25.13;3.60;;;9.20;99.90;;;;;;6337254;22;40279;-78
2023/02/03 00:13:30;;;;;;;14.60;3.13;;;9.20;99.90;;;;;;6310746;22;37413;-77
2023/02/03 00:15:56;;;;;;;13.97;3.33;;;9.30;99.90;;;;;;6309447;22;37612;-78
2023/02/03 00:18:22;;;;;;;18.00;3.20;;;9.30;99.90;;;;;;6336108;22;36728;-77
2023/02/03 00:20:49;;;;;;;21.37;3.57;;;9.30;99.90;;;;;;6309920;22;37770;-77
2023/02/03 00:23:15;;;;;;;16.47;2.90;;;9.30;99.90;;;;;;6308414;22;37573;-77
2023/02/03 00:25:41;;;;;;;20.37;2.83;;;9.40;99.90;;;;;;6337277;22;37446;-78
2023/02/03 00:28:07;;;;;;;19.23;3.20;;;9.30;99.90;;;;;;6310793;22;37891;-77
2023/02/03 00:30:34;;;;;;;16.63;2.93;;;9.30;99.90;;;;;;6338227;22;38673;-78
2023/02/03 00:33:01;;;;;;;18.53;3.33;;;9.30;99.90;;;;;;6337856;22;38247;-77
2023/02/03 00:35:27;;;;;;;18.87;3.37;;;9.30;99.90;;;;;;6336884;22;48606;-77
2023/02/03 00:37:55;;;;;;;18.93;3.43;;;9.30;99.90;;;;;;6310099;22;36554;-78
2023/02/03 00:40:24;;;;;;;22.87;4.17;;;9.30;99.90;;;;;;6333400;22;38488;-77
2023/02/03 00:42:50;;;;;;;18.90;3.77;;;9.30;99.90;;;;;;6307969;22;37292;-77
2023/02/03 00:45:17;;;;;;;21.53;3.83;;;9.30;99.90;;;;;;6308430;22;36789;-78
2023/02/03 00:47:43;;;;;;;16.17;3.17;;;9.30;99.90;;;;;;6311055;22;35979;-78
2023/02/03 00:50:09;;;;;;;21.00;3.60;;;9.30;99.90;;;;;;6337888;22;38390;-78
2023/02/03 00:52:36;;;;;;;11.77;3.07;;;9.30;99.90;;;;;;6309492;22;37530;-78
2023/02/03 00:55:02;;;;;;;13.80;3.10;;;9.30;99.90;;;;;;6308941;22;36957;-77
2023/02/03 00:57:29;;;;;;;20.07;3.27;;;9.30;99.90;;;;;;6335424;22;37109;-78
2023/02/03 00:59:56;;;;;;;18.63;3.80;;;9.30;99.90;;;;;;6337328;22;38792;-77
2023/02/03 01:02:23;;;;;;;25.17;3.70;;;9.40;99.90;;;;;;6336659;22;38091;-77
2023/02/03 01:04:49;;;;;;;17.20;3.87;;;9.40;99.90;;;;;;6338151;22;39068;-77
2023/02/03 01:07:15;;;;;;;21.70;3.83;;;9.40;99.90;;;;;;6310740;22;36098;-78
2023/02/03 01:09:41;;;;;;;22.43;3.60;;;9.40;99.90;;;;;;6339228;22;39729;-77
2023/02/03 01:12:07;;;;;;;26.33;5.23;;;9.40;99.90;;;;;;6338173;22;38734;-77
2023/02/03 01:14:34;;;;;;;19.27;3.83;;;9.50;99.90;;;;;;6338542;22;37052;-78
2023/02/03 01:17:00;;;;;;;15.90;3.67;;;9.40;99.90;;;;;;6340331;22;38694;-78
2023/02/03 01:19:26;;;;;;;27.97;3.80;;;9.40;99.90;;;;;;6310076;22;38149;-78
2023/02/03 01:21:52;;;;;;;24.63;3.87;;;9.40;99.90;;;;;;6311347;22;37593;-78
2023/02/03 01:24:18;;;;;;;23.03;3.80;;;9.40;99.90;;;;;;6312598;22;36697;-77
2023/02/03 01:26:44;;;;;;;21.63;3.77;;;9.50;99.90;;;;;;6313539;22;35798;-78
2023/02/03 01:29:10;;;;;;;19.73;3.10;;;9.50;99.90;;;;;;6336810;22;38930;-78
2023/02/03 01:31:39;;;;;;;18.57;3.63;;;9.50;99.90;;;;;;6314004;22;37444;-78
2023/02/03 01:34:07;;;;;;;19.67;3.80;;;9.60;99.90;;;;;;6340321;22;37605;-78
2023/02/03 01:36:34;;;;;;;23.63;4.97;;;9.60;99.90;;;;;;6342712;22;37362;-78
2023/02/03 01:39:00;;;;;;;21.63;4.07;;;9.60;99.90;;;;;;6341877;22;37876;-78
2023/02/03 01:41:30;;;;;;;18.63;3.33;;;9.60;99.90;;;;;;6341904;22;47139;-78
2023/02/03 01:43:58;;;;;;;18.97;3.03;;;9.60;99.90;;;;;;6342771;22;37736;-78
2023/02/03 01:46:33;;;;;;;13.70;3.17;;;9.60;99.90;;;;;;6339623;22;37081;-78
2023/02/03 01:49:25;;;;;;;17.20;3.03;;;9.60;99.90;;;;;;6314842;22;37974;-78
2023/02/03 01:51:52;;;;;;;16.90;2.93;;;9.60;99.90;;;;;;6303470;22;48030;-78
2023/02/03 01:54:23;;;;;;;25.93;3.67;;;9.60;99.90;;;;;;6343523;22;38966;-79
2023/02/03 01:57:01;;;;;;;16.00;3.50;;;9.60;99.90;;;;;;6345226;22;37077;-78
2023/02/03 01:59:30;;;;;;;22.30;4.23;;;9.60;99.90;;;;;;6341107;22;47343;-79
2023/02/03 02:04:47;;;;;;;23.10;4.13;;;9.60;99.90;;;;;;6368897;22;20023;-78
2023/02/03 02:07:15;;;;;;;18.45;4.35;;;9.60;99.90;;;;;;6359629;22;20022;-78
2023/02/03 02:09:43;;;;;;;19.57;3.23;;;9.70;99.90;;;;;;6389402;22;40087;-78
2023/02/03 02:12:10;;;;;;;17.93;3.57;;;9.70;99.90;;;;;;6387894;22;39060;-79
2023/02/03 02:14:39;;;;;;;15.37;3.37;;;9.70;99.90;;;;;;6362243;22;36652;-77
2023/02/03 02:17:06;;;;;;;20.27;3.20;;;9.70;99.90;;;;;;6357706;22;36183;-79
2023/02/03 02:19:56;;;;;;;24.07;3.40;;;9.70;99.90;;;;;;6359563;22;38801;-78
2023/02/03 02:22:39;;;;;;;19.73;3.87;;;9.70;99.90;;;;;;6359659;22;39976;-78
2023/02/03 02:25:17;;;;;;;19.77;3.55;;;9.70;99.90;;;;;;6390815;22;37705;-78
2023/02/03 02:27:55;;;;;;;21.60;3.77;;;9.70;99.90;;;;;;6387683;22;37380;-79
2023/02/03 02:30:38;;;;;;;19.53;4.33;;;9.70;99.90;;;;;;6359570;22;37394;-79
2023/02/03 02:33:17;;;;;;;14.82;3.00;;;9.70;99.90;;;;;;6363459;22;47658;-80
2023/02/03 02:36:14;;;;;;;12.77;2.67;;;9.70;99.90;;;;;;6363727;22;37377;-80
2023/02/03 02:38:48;;;;;;;15.47;2.90;;;9.80;99.90;;;;;;6393251;22;50326;-79
2023/02/03 02:41:17;;;;;;;17.67;3.00;;;9.80;99.90;;;;;;6367273;22;37520;-79
2023/02/03 02:44:02;;;;;;;19.83;2.93;;;9.80;99.90;;;;;;6394441;22;39798;-79
2023/02/03 02:46:43;;;;;;;12.67;2.83;;;9.80;99.90;;;;;;6389515;22;46857;-78
2023/02/03 02:49:18;;;;;;;11.30;2.20;;;9.80;99.90;;;;;;6362214;22;36940;-79
2023/02/03 02:51:47;;;;;;;14.47;2.77;;;9.80;99.90;;;;;;6370747;22;37855;-79
2023/02/03 02:54:20;;;;;;;10.80;2.30;;;9.90;99.90;;;;;;6365318;22;37353;-78
2023/02/03 02:56:50;;;;;;;19.20;2.60;;;9.80;99.90;;;;;;6356814;22;37236;-79
2023/02/03 02:59:16;;;;;;;14.67;2.63;;;9.80;99.90;;;;;;6383376;22;37601;-79
2023/02/03 03:01:44;;;;;;;15.90;2.70;;;9.80;99.90;;;;;;6358414;22;37689;-79
2023/02/03 03:04:13;;;;;;;17.53;2.70;;;9.80;99.90;;;;;;6393385;22;39235;-79
2023/02/03 03:06:52;;;;;;;15.17;3.10;;;9.80;99.90;;;;;;6363703;22;37290;-79
2023/02/03 03:09:34;;;;;;;15.50;2.47;;;9.80;99.90;;;;;;6393309;22;37577;-79
2023/02/03 03:12:20;;;;;;;12.95;2.55;;;9.80;99.90;;;;;;6366099;22;38889;-80
2023/02/03 03:14:57;;;;;;;14.50;2.37;;;9.80;99.90;;;;;;6389541;22;48238;-78
2023/02/03 03:17:27;;;;;;;14.50;2.90;;;9.80;99.90;;;;;;6363257;22;36971;-78
2023/02/03 03:19:56;;;;;;;15.93;2.40;;;9.80;99.90;;;;;;6364497;22;35161;-79
2023/02/03 03:22:29;;;;;;;13.63;3.63;;;9.70;99.90;;;;;;6365861;22;38098;-78
2023/02/03 03:25:05;;;;;;;13.03;2.80;;;9.70;99.90;;;;;;6361363;22;38496;-78
2023/02/03 03:27:39;;;;;;;17.60;3.40;;;9.80;99.90;;;;;;6389375;22;48952;-77
2023/02/03 03:30:10;;;;;;;14.60;2.87;;;9.80;99.90;;;;;;6360670;22;36146;-78
2023/02/03 03:32:39;;;;;;;13.40;3.03;;;9.70;99.90;;;;;;6367295;22;37550;-79
2023/02/03 03:35:06;;;;;;;13.37;2.30;;;9.60;99.90;;;;;;6365503;22;37715;-78
2023/02/03 03:37:46;;;;;;;20.67;3.10;;;9.60;99.90;;;;;;6395349;22;38904;-79
2023/02/03 03:40:22;;;;;;;21.10;2.80;;;9.50;99.90;;;;;;6368321;22;36281;-79
2023/02/03 03:43:13;;;;;;;19.57;3.07;;;9.50;99.90;;;;;;6395092;22;38732;-80
2023/02/03 03:46:00;;;;;;;17.10;2.93;;;9.50;99.90;;;;;;6366768;22;48274;-79
2023/02/03 03:48:56;;;;;;;15.50;2.83;;;9.50;99.90;;;;;;6366380;22;37574;-79
2023/02/03 03:51:52;;;;;;;18.20;3.43;;;9.50;99.90;;;;;;6364677;22;36074;-78
2023/02/03 03:54:22;;;;;;;18.57;3.50;;;9.50;99.90;;;;;;6367383;22;37638;-78
2023/02/03 03:57:24;;;;;;;14.60;3.20;;;9.50;99.90;;;;;;6368704;22;37804;-80
2023/02/03 03:59:50;;;;;;;19.57;3.13;;;9.50;99.90;;;;;;6331130;22;50149;-79
2023/02/03 04:02:18;;;;;;;19.27;3.10;;;9.50;99.90;;;;;;6398357;22;38550;-79
2023/02/03 04:04:47;;;;;;;14.77;2.60;;;9.50;99.90;;;;;;6398275;22;40343;-80
2023/02/03 04:07:14;;;;;;;9.87;2.10;;;9.60;99.90;;;;;;6397991;22;39091;-79
2023/02/03 04:09:41;;;;;;;20.53;2.70;;;9.60;99.90;;;;;;6393466;22;39489;-78
2023/02/03 04:12:21;;;;;;;16.13;2.83;;;9.60;99.90;;;;;;6393903;22;39191;-80
2023/02/03 04:14:47;;;;;;;19.33;3.23;;;9.50;99.90;;;;;;6399961;22;39285;-80
2023/02/03 04:17:13;;;;;;;19.03;2.60;;;9.50;99.90;;;;;;6394729;22;39273;-79
2023/02/03 04:19:39;;;;;;;18.83;2.93;;;9.60;99.90;;;;;;6395900;22;37707;-79
2023/02/03 04:22:05;;;;;;;12.90;2.80;;;9.60;99.90;;;;;;6394982;22;37187;-79
2023/02/03 04:24:31;;;;;;;17.60;2.93;;;9.60;99.90;;;;;;6396646;22;39391;-79
2023/02/03 04:26:58;;;;;;;20.17;4.03;;;9.60;99.90;;;;;;6393447;22;38289;-79
2023/02/03 04:29:24;;;;;;;18.03;4.03;;;9.50;99.90;;;;;;6341677;22;37288;-80
2023/02/03 04:31:50;;;;;;;22.13;3.80;;;9.50;99.90;;;;;;6379433;22;36073;-80
2023/02/03 04:34:16;;;;;;;21.53;3.60;;;9.50;99.90;;;;;;6390749;22;40326;-80
2023/02/03 04:36:44;;;;;;;9.90;2.33;;;9.50;99.90;;;;;;6366846;22;37416;-79
2023/02/03 04:39:14;;;;;;;19.50;2.63;;;9.60;99.90;;;;;;6393612;22;37038;-81
2023/02/03 04:41:40;;;;;;;17.93;2.97;;;9.50;99.90;;;;;;6401245;22;37237;-81
2023/02/03 04:44:28;;;;;;;24.70;3.23;;;9.50;99.90;;;;;;6374276;22;38783;-80
2023/02/03 04:46:56;;;;;;;13.23;2.43;;;9.50;99.90;;;;;;6400407;22;38807;-80
2023/02/03 04:49:31;;;;;;;21.57;3.00;;;9.50;99.90;;;;;;6373471;22;38199;-80
2023/02/03 04:51:57;;;;;;;16.90;2.90;;;9.50;99.90;;;;;;6398804;22;38490;-80
2023/02/03 04:54:23;;;;;;;16.17;2.80;;;9.40;99.90;;;;;;6397318;22;39284;-79
2023/02/03 04:56:50;;;;;;;19.90;2.60;;;9.40;99.90;;;;;;6370416;22;38398;-78
2023/02/03 04:59:16;;;;;;;15.63;3.33;;;9.40;99.90;;;;;;6369887;22;38070;-80
2023/02/03 05:01:42;;;;;;;16.23;2.97;;;9.30;99.90;;;;;;6397698;22;36933;-79
2023/02/03 05:04:15;;;;;;;26.43;4.40;;;9.30;99.90;;;;;;6397330;22;38505;-80
2023/02/03 05:06:45;;;;;;;17.17;2.33;;;9.30;99.90;;;;;;6399589;22;36945;-81
2023/02/03 05:09:12;;;;;;;15.30;2.67;;;9.30;99.90;;;;;;6401750;22;38047;-80
2023/02/03 05:11:54;;;;;;;17.57;3.77;;;9.30;99.90;;;;;;6400023;22;38664;-81
2023/02/03 05:14:27;;;;;;;20.80;2.70;;;9.30;99.90;;;;;;6398899;22;38223;-80
2023/02/03 05:16:53;;;;;;;13.10;2.37;;;9.40;99.90;;;;;;6401543;22;39450;-79
2023/02/03 05:19:19;;;;;;;15.90;2.67;;;9.40;99.90;;;;;;6396319;22;36679;-79
2023/02/03 05:21:45;;;;;;;19.27;2.80;;;9.40;99.90;;;;;;6371095;22;37576;-79
2023/02/03 05:24:12;;;;;;;17.10;3.40;;;9.40;99.90;;;;;;6396989;22;40200;-78
2023/02/03 05:26:46;;;;;;;16.00;2.93;;;9.40;99.90;;;;;;6370266;22;37253;-79
2023/02/03 05:29:13;;;;;;;20.60;2.53;;;9.40;99.90;;;;;;6368730;22;36993;-79
2023/02/03 05:31:39;;;;;;;14.00;2.33;;;9.40;99.90;;;;;;6399585;22;35983;-80
2023/02/03 05:34:05;;;;;;;13.77;2.57;;;9.50;99.90;;;;;;6400986;22;40093;-79
2023/02/03 05:36:32;;;;;;;19.03;3.10;;;9.50;99.90;;;;;;6396213;22;37555;-79
2023/02/03 05:38:58;;;;;;;17.70;2.77;;;9.50;99.90;;;;;;6372595;22;38112;-79
2023/02/03 05:44:10;;;;;;;17.77;2.30;;;9.30;99.90;;;;;;6401607;22;40659;-79
2023/02/03 05:46:45;;;;;;;16.60;2.77;;;9.30;99.90;;;;;;6397808;22;38892;-79
2023/02/03 05:49:12;;;;;;;16.00;2.83;;;9.20;99.90;;;;;;6401684;22;39684;-79
2023/02/03 05:51:44;;;;;;;26.50;3.83;;;9.20;99.90;;;;;;6400841;22;35832;-80
2023/02/03 05:54:10;;;;;;;24.33;3.37;;;9.20;99.90;;;;;;6374207;22;39138;-79
2023/02/03 05:56:36;;;;;;;24.63;3.30;;;9.20;99.90;;;;;;6402307;22;39905;-81
2023/02/03 05:59:04;;;;;;;21.37;2.70;;;9.20;99.90;;;;;;6377075;22;40275;-79
2023/02/03 06:01:31;;;;;;;18.90;3.20;;;9.20;99.90;;;;;;6375543;22;48286;-80
2023/02/03 06:04:06;;;;;;;21.40;3.10;;;9.30;99.90;;;;;;6369566;22;38898;-80
2023/02/03 06:06:33;;;;;;;21.10;3.03;;;9.30;99.90;;;;;;6366134;22;50153;-79
2023/02/03 06:09:05;;;;;;;19.93;3.33;;;9.30;99.90;;;;;;6363989;22;36797;-79
2023/02/03 06:11:32;;;;;;;20.30;2.87;;;9.30;99.90;;;;;;6389622;22;47312;-79
2023/02/03 06:13:58;;;;;;;18.87;2.87;;;9.30;99.90;;;;;;6360162;22;40297;-82
2023/02/03 06:16:25;;;;;;;21.53;3.00;;;9.30;99.90;;;;;;6374980;22;39815;-79
2023/02/03 06:18:52;;;;;;;16.40;2.40;;;9.30;99.90;;;;;;6361694;22;37098;-79
2023/02/03 06:21:51;;;;;;;15.40;2.87;;;9.30;99.90;;;;;;6366557;22;37249;-81
2023/02/03 06:24:25;;;;;;;22.60;3.10;;;9.30;99.90;;;;;;6287643;22;38876;-79
2023/02/03 06:26:51;;;;;;;14.80;2.60;;;9.30;99.90;;;;;;6331279;22;38721;-80
2023/02/03 06:29:19;;;;;;;22.50;3.30;;;9.30;99.90;;;;;;6279084;22;39271;-79
2023/02/03 06:31:46;;;;;;;14.30;2.87;;;9.20;99.90;;;;;;6316377;22;37570;-80
2023/02/03 06:34:16;;;;;;;14.63;2.77;;;9.20;99.90;;;;;;6292174;22;39411;-80
2023/02/03 06:36:47;;;;;;;20.70;2.93;;;9.20;99.90;;;;;;6332123;22;39825;-80
2023/02/03 06:39:13;;;;;;;19.37;3.50;;;9.20;99.90;;;;;;6298083;22;37245;-79
2023/02/03 06:41:40;;;;;;;18.53;2.87;;;9.20;99.90;;;;;;6303499;22;37687;-79
2023/02/03 06:44:06;;;;;;;18.13;3.70;;;9.20;99.90;;;;;;6305083;22;38305;-79
2023/02/03 06:46:33;;;;;;;15.03;2.70;;;9.20;99.90;;;;;;6324499;22;38373;-78
2023/02/03 06:49:00;;;;;;;17.63;3.03;;;9.20;99.90;;;;;;6300573;22;39514;-79
2023/02/03 06:51:43;;;;;;;16.13;2.93;;;9.20;99.90;;;;;;6288313;22;36208;-79
2023/02/03 06:54:10;;;;;;;14.20;2.27;;;9.30;99.90;;;;;;6291872;22;38560;-80
2023/02/03 06:56:37;;;;;;;16.17;2.87;;;9.30;99.90;;;;;;6335861;22;38499;-80
2023/02/03 06:59:05;;;;;;;14.77;2.97;;;9.40;99.90;;;;;;6276362;22;37967;-79
2023/02/03 07:01:32;;;;;;;15.70;1.80;;;9.50;99.90;;;;;;6278478;22;47067;-80
2023/02/03 07:04:06;;;;;;;13.63;2.23;;;9.50;99.90;;;;;;6279158;22;40186;-81
2023/02/03 07:06:33;;;;;;;19.37;2.57;;;9.50;99.90;;;;;;6304243;22;47866;-79
2023/02/03 07:09:01;;;;;;;14.60;3.07;;;9.50;99.90;;;;;;6275033;22;39876;-80
2023/02/03 07:11:28;;;;;;;15.37;2.53;;;9.60;99.90;;;;;;6396852;22;47620;-80
2023/02/03 07:13:55;;;;;;;18.30;2.77;;;9.60;99.90;;;;;;6368330;22;39096;-80
2023/02/03 07:16:21;;;;;;;16.53;2.53;;;9.60;99.90;;;;;;6372008;22;38236;-80
2023/02/03 07:18:56;;;;;;;19.13;3.60;;;9.60;99.90;;;;;;6398545;22;39032;-81
2023/02/03 07:21:30;;;;;;;12.00;2.33;;;9.60;99.90;;;;;;6365760;22;36297;-81
2023/02/03 07:24:01;;;;;;;18.87;3.03;;;9.70;99.90;;;;;;6364784;22;39957;-80
2023/02/03 07:26:33;;;;;;;15.60;2.83;;;9.70;99.90;;;;;;6361011;22;49500;-80
2023/02/03 07:28:59;;;;;;;13.50;2.05;;;9.70;99.90;;;;;;6386668;22;38614;-80
2023/02/03 07:31:48;;;;;;;13.70;2.83;;;9.70;99.90;;;;;;6361603;22;37938;-81
2023/02/03 07:34:21;;;;;;;13.50;2.30;;;9.80;99.90;;;;;;6389607;22;37676;-81
2023/02/03 07:36:48;;;;;;;17.27;2.65;;;9.80;99.90;;;;;;6386558;22;38888;-80
2023/02/03 07:39:15;;;;;;;17.63;2.23;;;9.80;99.90;;;;;;6361236;22;38277;-80
2023/02/03 07:41:43;;;;;;;10.80;2.00;;;9.90;99.90;;;;;;6396992;22;36634;-81
2023/02/03 07:44:09;;;;;;;15.80;2.77;;;9.90;99.90;;;;;;6392479;22;38794;-81
2023/02/03 07:46:44;;;;;;;17.60;2.73;;;10.00;99.90;;;;;;6392269;22;38917;-81
2023/02/03 07:49:11;;;;;;;21.97;3.03;;;9.90;99.90;;;;;;6358412;22;37400;-78
2023/02/03 07:51:37;;;;;;;23.53;2.70;;;10.00;99.90;;;;;;6384961;22;37871;-80
2023/02/03 07:54:03;;;;;;;16.83;2.87;;;10.00;99.90;;;;;;6384247;22;37707;-79
2023/02/03 07:56:34;;;;;;;15.00;3.27;;;10.00;99.90;;;;;;6398203;22;39941;-81
2023/02/03 07:59:00;;;;;;;14.73;2.47;;;10.00;99.90;;;;;;6391188;22;38664;-81
2023/02/03 08:01:46;;;;;;;15.87;2.67;;;10.00;99.90;;;;;;6398953;22;38130;-80
2023/02/03 08:04:15;;;;;;;21.30;2.57;;;10.00;99.90;;;;;;6373664;22;40224;-80
2023/02/03 08:06:45;;;;;;;14.33;2.37;;;10.00;99.90;;;;;;6368709;22;39038;-80
2023/02/03 08:09:12;;;;;;;18.53;2.13;;;10.00;99.90;;;;;;6337947;22;38482;-79
2023/02/03 08:11:40;;;;;;;18.43;3.10;;;10.00;99.90;;;;;;6369413;22;38688;-80
2023/02/03 08:14:07;;;;;;;19.50;2.57;;;10.00;99.90;;;;;;6341188;22;38682;-79
2023/02/03 08:16:36;;;;;;;21.50;2.80;;;10.00;99.90;;;;;;6342297;22;38195;-80
2023/02/03 08:19:03;;;;;;;16.83;2.83;;;10.10;99.90;;;;;;6366863;22;39626;-81
2023/02/03 08:21:36;;;;;;;18.37;2.93;;;10.10;99.90;;;;;;6354077;22;37237;-79
2023/02/03 08:24:28;;;;;;;18.03;2.87;;;10.10;99.90;;;;;;6344983;22;39164;-81
2023/02/03 08:34:56;;;;;;;12.53;2.50;;;10.10;99.90;;;;;;6264193;22;20008;-80
2023/02/03 08:45:35;;;;;;;19.77;2.90;;;10.20;99.90;;;;;;6267465;22;20060;-81
2023/02/03 08:48:17;;;;;;;14.50;2.47;;;10.20;99.90;;;;;;6289904;22;20029;-81
2023/02/03 08:53:19;;;;;;;20.33;3.13;;;10.30;99.90;;;;;;6302221;22;20030;-78
2023/02/03 08:55:46;;;;;;;16.27;2.87;;;10.30;99.90;;;;;;6360428;22;39852;-79
2023/02/03 08:58:21;;;;;;;21.30;2.93;;;10.30;99.90;;;;;;6366544;22;39125;-80
2023/02/03 09:01:05;;;;;;;16.27;2.70;;;10.30;99.90;;;;;;6340211;22;39281;-81
2023/02/03 09:03:35;;;;;;;16.13;2.92;;;10.40;99.90;;;;;;6326481;22;47156;-80
2023/02/03 09:06:15;;;;;;;14.30;2.50;;;10.40;99.90;;;;;;6368164;22;39481;-81
2023/02/03 09:08:45;;;;;;;17.13;3.00;;;10.40;99.90;;;;;;6344519;22;49499;-80
2023/02/03 09:11:18;;;;;;;16.57;3.07;;;10.50;99.90;;;;;;6368183;22;39682;-79
2023/02/03 09:13:47;;;;;;;17.33;3.53;;;10.50;99.90;;;;;;6339983;22;37066;-80
2023/02/03 09:16:17;;;;;;;17.97;2.80;;;10.60;99.90;;;;;;6350505;22;39590;-81
2023/02/03 09:18:48;;;;;;;16.43;2.70;;;10.60;99.90;;;;;;6330000;22;38177;-80
2023/02/03 09:21:20;;;;;;;16.30;3.23;;;10.60;99.90;;;;;;6333264;22;38557;-77
2023/02/03 09:24:03;;;;;;;13.77;2.72;;;10.60;99.90;;;;;;6334589;22;37567;-81
2023/02/03 09:26:33;;;;;;;16.57;2.50;;;10.60;99.90;;;;;;6298702;22;38379;-79
2023/02/03 09:28:59;;;;;;;21.50;2.60;;;10.70;99.90;;;;;;6340501;22;38397;-81
2023/02/03 09:31:29;;;;;;;28.47;2.87;;;10.70;99.90;;;;;;6365777;22;38560;-80
2023/02/03 09:34:10;;;;;;;16.00;2.33;;;10.70;99.90;;;;;;6334976;22;38421;-79
2023/02/03 09:36:41;;;;;;;17.23;2.85;;;10.70;99.90;;;;;;6251269;22;48624;-80
2023/02/03 09:41:43;;;;;;;18.77;2.77;;;10.80;99.90;;;;;;6346489;22;20021;-80
2023/02/03 09:44:28;;;;;;;12.38;3.00;;;10.90;99.90;;;;;;6338976;22;36639;-80
2023/02/03 09:47:05;;;;;;;11.60;2.30;;;11.00;99.90;;;;;;6361613;22;40140;-82
2023/02/03 09:50:04;;;;;;;13.48;3.45;;;11.20;99.90;;;;;;6257004;22;50364;-84
2023/02/03 10:05:58;;;;;;;12.45;2.55;;;11.10;99.90;;;;;;6340677;22;20037;-80
2023/02/03 10:09:01;;;;;;;11.00;2.33;;;11.00;99.90;;;;;;6336706;22;38181;-82
2023/02/03 10:12:04;;;;;;;13.27;2.67;;;11.10;99.90;;;;;;6360156;22;50305;-81
2023/02/03 10:15:05;;;;;;;11.40;2.80;;;11.20;99.90;;;;;;6339134;22;48133;-79
2023/02/03 10:17:38;;;;;;;13.63;2.55;;;11.20;99.90;;;;;;6343239;22;48865;-81
2023/02/03 10:20:34;;;;;;;15.82;3.03;;;11.20;99.90;;;;;;6370324;22;39790;-80
2023/02/03 10:23:14;;;;;;;17.67;3.60;;;11.20;99.90;;;;;;6339183;22;47890;-80
2023/02/03 10:26:07;;;;;;;16.67;2.92;;;11.30;99.90;;;;;;6329173;22;48575;-80
2023/02/03 10:28:52;;;;;;;11.45;2.50;;;11.40;99.90;;;;;;6345534;22;48026;-81
2023/02/03 10:31:31;;;;;;;18.55;3.25;;;11.40;99.90;;;;;;6371289;22;40279;-81
2023/02/03 10:34:16;;;;;;;12.00;2.45;;;11.40;99.90;;;;;;6346847;22;38918;-81
2023/02/03 10:36:42;;;;;;;12.35;3.28;;;11.50;99.90;;;;;;6342330;22;47480;-80
2023/02/03 10:39:19;;;;;;;16.48;2.15;;;11.50;99.90;;;;;;6371796;22;38841;-81
2023/02/03 10:41:54;;;;;;;15.55;2.72;;;11.50;99.90;;;;;;6371370;22;39399;-81
2023/02/03 10:44:30;;;;;;;11.38;2.35;;;11.60;99.90;;;;;;6368630;22;39928;-79
2023/02/03 10:46:57;;;;;;;18.17;2.90;;;11.70;99.90;;;;;;6342892;22;37236;-81
2023/02/03 10:49:35;;;;;;;10.80;2.28;;;11.70;99.90;;;;;;6341036;22;36655;-80
2023/02/03 10:52:03;;;;;;;9.18;2.28;;;11.70;99.90;;;;;;6365451;22;39026;-80
2023/02/03 10:54:33;;;;;;;11.27;2.25;;;11.70;99.90;;;;;;6362609;22;50120;-81
2023/02/03 10:57:14;;;;;;;12.30;2.97;;;11.80;99.90;;;;;;6339932;22;38133;-82
2023/02/03 10:59:46;;;;;;;11.88;2.38;;;11.80;99.90;;;;;;6341285;22;47886;-80
2023/02/03 11:02:28;;;;;;;15.57;2.78;;;11.80;99.90;;;;;;6339698;22;38229;-81
2023/02/03 11:05:30;;;;;;;15.30;2.20;;;11.90;99.90;;;;;;6334590;22;40349;-81
2023/02/03 11:08:14;;;;;;;17.73;2.60;;;12.00;99.90;;;;;;6217568;23;47446;-80
2023/02/03 11:10:49;;;;;;;16.45;2.25;;;12.00;99.90;;;;;;6327683;22;48183;-81
2023/02/03 11:13:24;;;;;;;12.38;2.60;;;12.10;99.90;;;;;;6331752;22;37577;-81
2023/02/03 11:16:14;;;;;;;12.88;2.78;;;12.00;99.90;;;;;;6326213;22;37481;-80
2023/02/03 11:18:50;;;;;;;12.90;2.80;;;11.90;99.90;;;;;;6334430;22;49367;-80
2023/02/03 11:21:45;;;;;;;20.23;2.92;;;11.90;99.90;;;;;;6347982;22;37169;-80
2023/02/03 11:24:24;;;;;;;14.70;2.58;;;11.90;99.90;;;;;;6368806;22;38927;-80
2023/02/03 11:26:56;;;;;;;13.98;2.40;;;11.80;99.90;;;;;;6369952;22;38305;-81
2023/02/03 11:29:27;;;;;;;15.40;2.40;;;11.90;99.90;;;;;;6373534;22;37650;-80
2023/02/03 11:31:59;;;;;;;12.60;2.58;;;11.90;99.90;;;;;;6402050;22;38638;-80
2023/02/03 11:34:36;;;;;;;13.68;3.10;;;12.00;99.90;;;;;;6372262;22;38757;-81
2023/02/03 11:37:36;;;;;;;8.63;2.45;;;12.00;99.90;;;;;;6372648;22;39091;-81
2023/02/03 11:40:11;;;;;;;15.77;2.65;;;12.10;99.90;;;;;;6373329;22;37936;-80
2023/02/03 11:42:43;;;;;;;13.25;2.70;;;12.20;99.90;;;;;;6373821;22;49039;-80
2023/02/03 11:45:14;;;;;;;13.70;2.55;;;12.20;99.90;;;;;;6403391;22;40397;-80
2023/02/03 11:47:47;;;;;;;14.35;3.42;;;12.30;99.90;;;;;;6375064;22;38597;-80
2023/02/03 11:50:34;;;;;;;14.07;2.72;;;12.30;99.90;;;;;;6372879;22;39523;-80
2023/02/03 11:53:12;;;;;;;19.25;2.30;;;12.20;99.90;;;;;;6402139;22;38063;-80
2023/02/03 11:56:15;;;;;;;15.48;3.22;;;12.10;99.90;;;;;;6397981;22;49440;-80
2023/02/03 11:58:53;;;;;;;10.10;1.92;;;12.20;99.90;;;;;;6364617;22;47461;-81
2023/02/03 12:01:44;;;;;;;15.63;2.67;;;12.10;99.90;;;;;;6372418;22;38819;-81
2023/02/03 12:04:44;;;;;;;13.00;2.65;;;12.30;99.90;;;;;;6371260;22;37398;-81
2023/02/03 12:07:29;;;;;;;13.73;2.67;;;12.30;99.90;;;;;;6363872;22;38961;-81
2023/02/03 12:10:25;;;;;;;9.35;1.80;;;12.40;99.90;;;;;;6388101;22;39692;-81
2023/02/03 12:12:55;;;;;;;7.60;2.33;;;12.40;99.90;;;;;;6384860;22;49008;-82
2023/02/03 12:15:25;;;;;;;8.40;2.20;;;12.30;99.90;;;;;;6366436;22;36495;-81
2023/02/03 12:18:05;;;;;;;17.40;3.00;;;12.30;99.90;;;;;;6396180;22;40142;-81
2023/02/03 12:20:55;;;;;;;11.38;2.15;;;12.30;99.90;;;;;;6370584;22;47108;-81
2023/02/03 12:23:58;;;;;;;13.48;2.47;;;12.30;99.90;;;;;;6371618;22;38274;-80
2023/02/03 12:29:20;;;;;;;6.38;1.98;;;12.30;99.90;;;;;;6339023;22;20010;-82
2023/02/03 12:32:27;;;;;;;8.48;1.90;;;12.20;99.90;;;;;;6281878;22;48492;-82
2023/02/03 12:35:36;;;;;;;17.67;2.20;;;12.30;99.90;;;;;;6280189;22;49101;-81
2023/02/03 12:38:10;;;;;;;5.75;1.50;;;12.30;99.90;;;;;;6336732;22;49335;-80
2023/02/03 12:40:45;;;;;;;11.13;2.00;;;12.20;99.90;;;;;;6329776;22;40307;-76
2023/02/03 12:43:20;;;;;;;8.98;2.47;;;12.20;99.90;;;;;;6337903;22;38508;-81
2023/02/03 12:46:09;;;;;;;5.80;1.73;;;12.10;99.90;;;;;;6339781;22;38283;-80
2023/02/03 12:48:57;;;;;;;14.65;2.67;;;12.10;99.90;;;;;;6338476;22;50311;-81
2023/02/03 12:51:38;;;;;;;11.98;3.42;;;12.10;99.90;;;;;;6338810;22;38551;-80
2023/02/03 12:54:19;;;;;;;10.10;1.88;;;12.10;99.90;;;;;;6338954;22;38609;-81
2023/02/03 12:56:48;;;;;;;8.40;1.98;;;12.00;99.90;;;;;;6337955;22;38346;-80
2023/02/03 13:02:12;;;;;;;9.43;1.70;;;12.00;99.90;;;;;;6307924;22;20008;-80
2023/02/03 13:05:16;;;;;;;13.95;2.60;;;11.90;99.90;;;;;;6338201;22;50131;-82
2023/02/03 13:11:40;;;;;;;9.77;2.25;;;11.90;99.90;;;;;;6334013;22;48927;-82
2023/02/03 13:14:14;;;;;;;9.68;2.38;;;11.70;99.90;;;;;;6339837;22;38939;-82
2023/02/03 13:16:52;;;;;;;6.53;2.05;;;11.80;99.90;;;;;;6341932;22;40047;-82
2023/02/03 13:19:36;;;;;;;9.50;2.08;;;11.80;99.90;;;;;;6341420;22;39581;-83
2023/02/03 13:22:13;;;;;;;9.43;2.20;;;11.80;99.90;;;;;;6340665;22;38504;-82
2023/02/03 13:24:48;;;;;;;10.32;2.50;;;11.80;99.90;;;;;;6338323;22;39705;-82
2023/02/03 13:28:00;;;;;;;10.30;2.30;;;11.80;99.90;;;;;;6327694;22;37410;-80
2023/02/03 13:30:34;;;;;;;9.98;2.03;;;11.80;99.90;;;;;;6369156;22;38527;-81
2023/02/03 13:36:33;;;;;;;8.70;2.17;;;11.80;99.90;;;;;;6377333;22;20003;-82
2023/02/03 13:39:21;;;;;;;8.35;1.92;;;11.80;99.90;;;;;;6371470;22;38910;-82
2023/02/03 13:42:30;;;;;;;10.45;2.20;;;11.80;99.90;;;;;;6387685;22;48637;-82
2023/02/03 13:48:24;;;;;;;17.10;2.95;;;11.80;99.90;;;;;;6331200;22;20148;-82
2023/02/03 13:54:21;;;;;;;11.98;2.65;;;11.70;99.90;;;;;;6316758;22;19907;-80
2023/02/03 13:57:52;;;;;;;12.27;2.20;;;11.70;99.90;;;;;;6340662;22;47135;-82
2023/02/03 14:09:03;;;;;;;10.20;2.10;;;11.80;99.90;;;;;;6336362;22;20076;-82
2023/02/03 14:14:08;;;;;;;11.30;2.08;;;11.90;99.90;;;;;;6356341;22;20044;-79
2023/02/03 14:16:39;;;;;;;15.77;2.50;;;11.90;99.90;;;;;;6320947;22;37494;-80
2023/02/03 14:19:21;;;;;;;12.07;2.40;;;11.90;99.90;;;;;;6337581;22;36413;-80
2023/02/03 14:21:56;;;;;;;16.95;2.70;;;11.90;99.90;;;;;;6339752;22;40274;-78
2023/02/03 14:24:22;;;;;;;10.18;2.35;;;11.90;99.90;;;;;;6342510;22;38622;-80
2023/02/03 14:26:51;;;;;;;9.15;2.63;;;11.80;99.90;;;;;;6332675;22;36807;-79
2023/02/03 14:29:31;;;;;;;9.07;2.03;;;11.80;99.90;;;;;;6327139;22;36284;-79